createdAt,value
2024-03-16T00:01:45.895Z,100210.63
2024-03-16T00:04:17.276Z,100206.19
2024-03-16T00:06:45.907Z,100207.14
2024-03-16T00:09:15.694Z,100207.22
2024-03-16T00:11:44.248Z,100207.59
2024-03-16T00:14:12.814Z,100205.73
2024-03-16T00:16:41.309Z,100207.05
2024-03-16T00:19:09.996Z,100211.02
2024-03-16T00:21:38.703Z,100213.02
2024-03-16T00:24:08.564Z,100213.61
2024-03-16T00:26:37.115Z,100208.99
2024-03-16T00:29:08.285Z,100206.48
2024-03-16T00:31:36.866Z,100200.96
2024-03-16T00:34:05.936Z,100200.95
2024-03-16T00:36:34.548Z,100202.23
2024-03-16T00:39:05.429Z,100205.64
2024-03-16T00:41:34.049Z,100204.10
2024-03-16T00:44:02.535Z,100205.81
2024-03-16T00:46:31.065Z,100206.34
2024-03-16T00:48:59.559Z,100201.99
2024-03-16T00:51:29.415Z,100199.48
2024-03-16T00:53:58.527Z,100196.44
2024-03-16T00:56:27.041Z,100196.86
2024-03-16T00:58:55.709Z,100201.08
2024-03-16T01:01:24.333Z,100197.58
2024-03-16T01:03:53.014Z,100196.86
2024-03-16T01:06:21.614Z,100191.77
2024-03-16T01:08:50.117Z,100193.55
2024-03-16T01:11:19.118Z,100193.42
2024-03-16T01:13:47.942Z,100188.02
2024-03-16T01:16:16.772Z,100187.80
2024-03-16T01:18:45.437Z,100189.98
2024-03-16T01:21:14.016Z,100187.98
2024-03-16T01:23:42.581Z,100185.18
2024-03-16T01:26:11.116Z,100185.91
2024-03-16T01:28:39.676Z,100189.81
2024-03-16T01:31:09.273Z,100190.14
2024-03-16T01:33:40.354Z,100191.31
2024-03-16T01:36:09.487Z,100188.48
2024-03-16T01:38:38.063Z,100188.08
2024-03-16T01:41:06.857Z,100191.03
2024-03-16T01:43:35.337Z,100187.71
2024-03-16T01:46:04.009Z,100182.09
2024-03-16T01:48:32.676Z,100184.83
2024-03-16T01:51:02.503Z,100181.75
2024-03-16T01:53:33.679Z,100181.98
2024-03-16T01:56:03.255Z,100178.38
2024-03-16T01:58:36.335Z,100178.30
2024-03-16T02:01:05.239Z,100181.36
2024-03-16T02:03:33.830Z,100184.33
2024-03-16T02:06:02.625Z,100186.39
2024-03-16T02:08:31.139Z,100185.50
2024-03-16T02:10:59.673Z,100188.36
2024-03-16T02:13:28.289Z,100187.64
2024-03-16T02:15:56.836Z,100188.05
2024-03-16T02:18:25.435Z,100193.21
2024-03-16T02:20:53.936Z,100188.23
2024-03-16T02:23:23.124Z,100191.81
2024-03-16T02:25:51.642Z,100191.71
2024-03-16T02:28:20.168Z,100196.41
2024-03-16T02:30:49.002Z,100197.96
2024-03-16T02:33:17.712Z,100198.04
2024-03-16T02:35:46.398Z,100195.27
2024-03-16T02:38:15.528Z,100190.23
2024-03-16T02:40:44.385Z,100189.96
2024-03-16T02:43:12.932Z,100192.68
2024-03-16T02:45:41.504Z,100187.57
2024-03-16T02:48:10.740Z,100186.52
2024-03-16T02:50:39.437Z,100182.44
2024-03-16T02:53:09.383Z,100188.09
2024-03-16T02:55:38.045Z,100192.16
2024-03-16T02:58:06.873Z,100194.84
2024-03-16T03:00:35.450Z,100197.38
2024-03-16T03:03:04.246Z,100200.26
2024-03-16T03:05:32.733Z,100200.98
2024-03-16T03:08:01.204Z,100203.55
2024-03-16T03:10:29.762Z,100204.27
2024-03-16T03:12:58.457Z,100202.14
2024-03-16T03:15:27.126Z,100206.71
2024-03-16T03:17:55.694Z,100206.83
2024-03-16T03:20:24.924Z,100203.20
2024-03-16T03:22:53.460Z,100210.36
2024-03-16T03:25:22.782Z,100207.97
2024-03-16T03:27:51.537Z,100212.34
2024-03-16T03:30:20.546Z,100214.21
2024-03-16T03:32:49.058Z,100215.64
2024-03-16T03:35:17.724Z,100218.00
2024-03-16T03:37:46.209Z,100219.17
2024-03-16T03:40:15.219Z,100221.02
2024-03-16T03:42:49.204Z,100219.07
2024-03-16T03:45:28.765Z,100223.14
2024-03-16T03:48:04.185Z,100219.09
2024-03-16T03:50:34.774Z,100223.66
2024-03-16T03:53:04.344Z,100225.14
2024-03-16T03:55:33.185Z,100223.70
2024-03-16T03:58:03.378Z,100224.85
2024-03-16T04:00:32.095Z,100222.08
2024-03-16T04:03:00.665Z,100225.86
2024-03-16T04:05:29.163Z,100227.45
2024-03-16T04:07:57.730Z,100224.02
2024-03-16T04:10:26.248Z,100227.39
2024-03-16T04:12:55.125Z,100226.16
2024-03-16T04:15:23.655Z,100219.81
2024-03-16T04:17:52.397Z,100220.11
2024-03-16T04:20:21.649Z,100221.33
2024-03-16T04:22:50.774Z,100222.64
2024-03-16T04:25:19.299Z,100223.42
2024-03-16T04:27:47.835Z,100223.34
2024-03-16T04:30:16.866Z,100223.22
2024-03-16T04:32:45.835Z,100225.33
2024-03-16T04:35:14.404Z,100221.80
2024-03-16T04:37:42.877Z,100224.58
2024-03-16T04:40:11.955Z,100224.17
2024-03-16T04:42:40.596Z,100224.75
2024-03-16T04:45:09.564Z,100228.24
2024-03-16T04:47:38.098Z,100228.95
2024-03-16T04:50:07.352Z,100228.45
2024-03-16T04:52:35.922Z,100225.17
2024-03-16T04:55:05.334Z,100228.06
2024-03-16T04:57:33.954Z,100224.91
2024-03-16T05:00:02.508Z,100228.83
2024-03-16T05:02:31.787Z,100232.48
2024-03-16T05:05:00.356Z,100228.80
2024-03-16T05:07:28.886Z,100231.92
2024-03-16T05:09:57.462Z,100231.95
2024-03-16T05:12:26.100Z,100234.17
2024-03-16T05:14:54.625Z,100231.91
2024-03-16T05:17:23.154Z,100235.77
2024-03-16T05:19:53.206Z,100230.22
2024-03-16T05:22:21.742Z,100222.48
2024-03-16T05:24:50.418Z,100216.77
2024-03-16T05:27:19.033Z,100220.83
2024-03-16T05:29:47.501Z,100219.76
2024-03-16T05:32:16.318Z,100214.56
2024-03-16T05:34:44.849Z,100221.89
2024-03-16T05:37:13.399Z,100217.69
2024-03-16T05:39:41.980Z,100220.52
2024-03-16T05:42:12.252Z,100219.59
2024-03-16T05:44:40.814Z,100220.02
2024-03-16T05:47:09.480Z,100227.45
2024-03-16T05:49:40.384Z,100216.61
2024-03-16T05:52:09.003Z,100228.63
2024-03-16T05:54:37.683Z,100232.28
2024-03-16T05:57:06.808Z,100239.48
2024-03-16T05:59:35.324Z,100242.23
2024-03-16T06:02:04.187Z,100245.86
2024-03-16T06:04:32.750Z,100250.99
2024-03-16T06:07:01.261Z,100254.93
2024-03-16T06:09:29.912Z,100257.16
2024-03-16T06:11:58.603Z,100258.63
2024-03-16T06:14:27.105Z,100258.73
2024-03-16T06:16:55.878Z,100261.54
2024-03-16T06:19:24.383Z,100264.47
2024-03-16T06:21:52.903Z,100263.77
2024-03-16T06:24:22.171Z,100263.05
2024-03-16T06:26:55.566Z,100264.67
2024-03-16T06:29:27.048Z,100271.48
2024-03-16T06:32:06.042Z,100276.63
2024-03-16T06:34:34.750Z,100279.12
2024-03-16T06:37:04.298Z,100280.16
2024-03-16T06:39:32.917Z,100280.11
2024-03-16T06:42:04.125Z,100283.20
2024-03-16T06:44:32.626Z,100281.25
2024-03-16T06:47:01.155Z,100293.20
2024-03-16T06:49:30.584Z,100291.85
2024-03-16T06:51:59.234Z,100297.05
2024-03-16T06:54:27.737Z,100301.17
2024-03-16T06:56:56.145Z,100307.77
2024-03-16T06:59:24.575Z,100313.56
2024-03-16T07:01:53.009Z,100321.84
2024-03-16T07:04:21.523Z,100324.04
2024-03-16T07:06:50.125Z,100324.80
2024-03-16T07:09:20.026Z,100326.52
2024-03-16T07:11:49.099Z,100329.15
2024-03-16T07:14:18.164Z,100333.38
2024-03-16T07:16:46.931Z,100336.55
2024-03-16T07:19:15.491Z,100339.51
2024-03-16T07:21:44.087Z,100342.45
2024-03-16T07:24:13.024Z,100345.00
2024-03-16T07:26:41.540Z,100345.63
2024-03-16T07:29:10.219Z,100349.25
2024-03-16T07:31:39.077Z,100346.10
2024-03-16T07:34:07.588Z,100347.55
2024-03-16T07:36:36.187Z,100345.58
2024-03-16T07:39:09.415Z,100352.16
2024-03-16T07:41:37.912Z,100359.92
2024-03-16T07:44:06.625Z,100359.89
2024-03-16T07:46:35.271Z,100360.38
2024-03-16T07:49:06.638Z,100364.63
2024-03-16T07:51:37.610Z,100373.34
2024-03-16T07:54:12.481Z,100379.77
2024-03-16T07:56:41.060Z,100383.88
2024-03-16T07:59:10.742Z,100396.07
2024-03-16T08:01:41.384Z,100398.16
2024-03-16T08:04:10.140Z,100397.77
2024-03-16T08:06:39.094Z,100401.13
2024-03-16T08:09:09.622Z,100404.00
2024-03-16T08:11:38.141Z,100420.23
2024-03-16T08:14:09.466Z,100425.89
2024-03-16T08:16:37.973Z,100433.11
2024-03-16T08:19:06.916Z,100436.38
2024-03-16T08:21:37.384Z,100442.01
2024-03-16T08:24:06.840Z,100450.34
2024-03-16T08:26:35.396Z,100466.52
2024-03-16T08:29:03.866Z,100471.28
2024-03-16T08:31:32.484Z,100474.57
2024-03-16T08:34:01.283Z,100474.95
2024-03-16T08:36:30.332Z,100485.95
2024-03-16T08:38:58.951Z,100488.52
2024-03-16T08:41:27.415Z,100494.46
2024-03-16T08:43:56.018Z,100500.20
2024-03-16T08:46:27.787Z,100498.23
2024-03-16T08:48:56.835Z,100510.92
2024-03-16T08:51:25.454Z,100515.42
2024-03-16T08:53:54.123Z,100522.96
2024-03-16T08:56:24.740Z,100529.90
2024-03-16T08:58:53.607Z,100532.34
2024-03-16T09:01:22.645Z,100535.54
2024-03-16T09:03:51.876Z,100540.50
2024-03-16T09:06:20.920Z,100553.16
2024-03-16T09:08:50.575Z,100559.92
2024-03-16T09:11:19.152Z,100559.21
2024-03-16T09:13:47.759Z,100571.81
2024-03-16T09:16:16.784Z,100583.66
2024-03-16T09:18:46.393Z,100592.86
2024-03-16T09:21:14.907Z,100601.79
2024-03-16T09:23:43.400Z,100604.39
2024-03-16T09:26:11.902Z,100602.59
2024-03-16T09:28:40.379Z,100602.61
2024-03-16T09:31:11.310Z,100607.08
2024-03-16T09:33:40.093Z,100609.38
2024-03-16T09:36:08.846Z,100621.52
2024-03-16T09:38:37.416Z,100632.56
2024-03-16T09:41:06.312Z,100639.06
2024-03-16T09:43:35.300Z,100638.05
2024-03-16T09:46:05.397Z,100649.66
2024-03-16T09:48:34.086Z,100655.77
2024-03-16T09:51:05.132Z,100660.61
2024-03-16T09:53:34.443Z,100673.59
2024-03-16T09:56:05.760Z,100684.02
2024-03-16T09:58:34.718Z,100680.99
2024-03-16T10:01:04.316Z,100691.81
2024-03-16T10:03:33.156Z,100699.43
2024-03-16T10:06:05.733Z,100706.17
2024-03-16T10:08:34.258Z,100715.76
2024-03-16T10:11:13.632Z,100716.81
2024-03-16T10:13:53.886Z,100725.33
2024-03-16T10:16:22.399Z,100733.25
2024-03-16T10:18:53.521Z,100732.66
2024-03-16T10:21:22.020Z,100727.60
2024-03-16T10:23:50.520Z,100741.36
2024-03-16T10:26:19.000Z,100745.96
2024-03-16T10:28:47.723Z,100752.27
2024-03-16T10:31:16.246Z,100756.00
2024-03-16T10:33:44.799Z,100766.83
2024-03-16T10:36:18.709Z,100777.56
2024-03-16T10:38:47.824Z,100782.16
2024-03-16T10:41:17.677Z,100793.23
2024-03-16T10:43:46.709Z,100798.77
2024-03-16T10:46:16.645Z,100805.77
2024-03-16T10:48:45.164Z,100809.79
2024-03-16T10:51:18.424Z,100804.05
2024-03-16T10:53:47.704Z,100806.81
2024-03-16T10:56:16.797Z,100812.09
2024-03-16T10:58:45.690Z,100816.69
2024-03-16T11:01:19.369Z,100819.79
2024-03-16T11:03:49.197Z,100840.98
2024-03-16T11:06:20.117Z,100840.14
2024-03-16T11:08:49.540Z,100854.20
2024-03-16T11:11:19.900Z,100853.04
2024-03-16T11:14:06.263Z,100862.12
2024-03-16T11:16:35.042Z,100870.41
2024-03-16T11:19:08.448Z,100874.39
2024-03-16T11:21:39.630Z,100879.02
2024-03-16T11:24:14.835Z,100891.20
2024-03-16T11:26:44.867Z,100889.19
2024-03-16T11:29:19.807Z,100897.05
2024-03-16T11:31:49.876Z,100890.82
2024-03-16T11:34:23.371Z,100898.98
2024-03-16T11:36:53.703Z,100900.57
2024-03-16T11:39:26.672Z,100900.50
2024-03-16T11:41:56.505Z,100903.88
2024-03-16T11:44:24.970Z,100905.96
2024-03-16T11:46:54.812Z,100904.67
2024-03-16T11:49:25.374Z,100916.42
2024-03-16T11:51:56.257Z,100917.95
2024-03-16T11:54:26.162Z,100924.88
2024-03-16T11:56:54.672Z,100919.15
2024-03-16T11:59:24.583Z,100932.12
2024-03-16T12:01:54.300Z,100944.41
2024-03-16T12:04:25.447Z,100943.75
2024-03-16T12:06:57.794Z,100945.07
2024-03-16T12:09:35.511Z,100950.25
2024-03-16T12:12:08.781Z,100948.22
2024-03-16T12:14:43.162Z,100951.64
2024-03-16T12:17:12.425Z,100952.14
2024-03-16T12:19:40.959Z,100958.77
2024-03-16T12:22:15.914Z,100964.20
2024-03-16T12:24:44.563Z,100968.77
2024-03-16T12:27:13.470Z,100968.21
2024-03-16T12:29:44.635Z,100967.89
2024-03-16T12:32:13.138Z,100972.39
2024-03-16T12:34:41.908Z,100973.87
2024-03-16T12:37:10.647Z,100973.09
2024-03-16T12:39:39.405Z,100973.05
2024-03-16T12:42:08.191Z,100976.92
2024-03-16T12:44:36.870Z,100978.31
2024-03-16T12:47:05.558Z,100990.09
2024-03-16T12:49:34.183Z,100994.92
2024-03-16T12:52:02.719Z,100995.73
2024-03-16T12:54:32.481Z,100999.08
2024-03-16T12:57:01.704Z,101008.64
2024-03-16T12:59:30.164Z,101009.80
2024-03-16T13:01:58.772Z,101009.90
2024-03-16T13:04:27.249Z,101011.73
2024-03-16T13:06:55.704Z,101013.52
2024-03-16T13:09:26.833Z,101014.27
2024-03-16T13:11:55.402Z,101018.02
2024-03-16T13:14:24.152Z,101018.34
2024-03-16T13:16:52.634Z,101024.66
2024-03-16T13:19:21.223Z,101027.73
2024-03-16T13:21:49.747Z,101029.17
2024-03-16T13:24:18.280Z,101029.80
2024-03-16T13:26:46.751Z,101023.00
2024-03-16T13:29:15.614Z,101029.14
2024-03-16T13:31:44.174Z,101032.15
2024-03-16T13:34:13.273Z,101029.46
2024-03-16T13:36:41.991Z,101029.45
2024-03-16T13:39:10.793Z,101032.45
2024-03-16T13:41:42.292Z,101035.91
2024-03-16T13:44:13.619Z,101040.19
2024-03-16T13:46:42.179Z,101054.73
2024-03-16T13:49:12.464Z,101057.65
2024-03-16T13:51:40.960Z,101055.39
2024-03-16T13:54:09.612Z,101058.84
2024-03-16T13:56:38.420Z,101057.29
2024-03-16T13:59:07.784Z,101056.36
2024-03-16T14:01:36.601Z,101060.53
2024-03-16T14:04:06.054Z,101066.50
2024-03-16T14:06:34.456Z,101069.84
2024-03-16T14:09:07.579Z,101075.34
2024-03-16T14:11:36.362Z,101080.83
2024-03-16T14:14:04.778Z,101079.95
2024-03-16T14:16:33.212Z,101075.10
2024-03-16T14:19:01.770Z,101072.45
2024-03-16T14:21:30.722Z,101083.34
2024-03-16T14:24:02.786Z,101079.27
2024-03-16T14:26:31.447Z,101076.48
2024-03-16T14:28:59.968Z,101076.00
2024-03-16T14:31:28.467Z,101072.73
2024-03-16T14:33:59.117Z,101071.83
2024-03-16T14:36:27.827Z,101075.46
2024-03-16T14:38:56.877Z,101075.13
2024-03-16T14:41:25.347Z,101076.07
2024-03-16T14:43:53.835Z,101074.31
2024-03-16T14:46:23.490Z,101080.99
2024-03-16T14:48:56.777Z,101076.46
2024-03-16T14:51:27.677Z,101074.11
2024-03-16T14:53:57.192Z,101080.80
2024-03-16T14:56:25.805Z,101079.12
2024-03-16T14:58:54.275Z,101083.48
2024-03-16T15:01:23.053Z,101091.44
2024-03-16T15:03:51.510Z,101089.30
2024-03-16T15:06:20.040Z,101089.08
2024-03-16T15:08:49.423Z,101095.48
2024-03-16T15:11:17.929Z,101091.89
2024-03-16T15:13:46.384Z,101091.64
2024-03-16T15:16:14.929Z,101100.17
2024-03-16T15:18:45.757Z,101102.10
2024-03-16T15:21:14.273Z,101104.32
2024-03-16T15:23:42.928Z,101106.45
2024-03-16T15:26:20.526Z,101106.98
2024-03-16T15:28:53.377Z,101108.85
2024-03-16T15:31:21.826Z,101111.44
2024-03-16T15:33:50.263Z,101115.03
2024-03-16T15:36:18.778Z,101119.95
2024-03-16T15:38:47.215Z,101119.42
2024-03-16T15:41:16.118Z,101123.73
2024-03-16T15:43:44.621Z,101126.83
2024-03-16T15:46:13.256Z,101133.14
2024-03-16T15:48:41.733Z,101133.20
2024-03-16T15:51:10.487Z,101134.45
2024-03-16T15:53:38.931Z,101140.31
2024-03-16T15:56:07.912Z,101140.44
2024-03-16T15:58:36.348Z,101138.34
2024-03-16T16:01:05.694Z,101148.02
2024-03-16T16:03:34.209Z,101143.81
2024-03-16T16:06:02.694Z,101147.48
2024-03-16T16:08:31.540Z,101145.11
2024-03-16T16:11:00.009Z,101147.09
2024-03-16T16:13:29.475Z,101156.21
2024-03-16T16:15:57.916Z,101157.56
2024-03-16T16:18:26.568Z,101157.32
2024-03-16T16:20:55.036Z,101163.96
2024-03-16T16:23:23.615Z,101167.89
2024-03-16T16:25:52.051Z,101170.55
2024-03-16T16:28:20.684Z,101172.19
2024-03-16T16:30:49.247Z,101173.13
2024-03-16T16:33:17.712Z,101174.98
2024-03-16T16:35:50.364Z,101178.61
2024-03-16T16:38:18.878Z,101182.30
2024-03-16T16:40:49.223Z,101178.30
2024-03-16T16:43:19.574Z,101189.47
2024-03-16T16:45:48.064Z,101192.43
2024-03-16T16:48:16.731Z,101194.89
2024-03-16T16:50:46.021Z,101195.18
2024-03-16T16:53:14.728Z,101201.38
2024-03-16T16:55:46.966Z,101210.41
2024-03-16T16:58:16.387Z,101212.20
2024-03-16T17:00:47.300Z,101214.13
2024-03-16T17:03:15.901Z,101220.80
2024-03-16T17:05:46.707Z,101223.33
2024-03-16T17:08:15.686Z,101230.21
2024-03-16T17:10:46.851Z,101230.58
2024-03-16T17:13:17.815Z,101230.89
2024-03-16T17:15:47.024Z,101239.33
2024-03-16T17:18:15.516Z,101242.31
2024-03-16T17:20:44.045Z,101245.65
2024-03-16T17:23:12.655Z,101252.16
2024-03-16T17:25:41.079Z,101256.44
2024-03-16T17:28:14.572Z,101257.19
2024-03-16T17:30:42.980Z,101262.51
2024-03-16T17:33:11.476Z,101267.00
2024-03-16T17:35:42.554Z,101264.43
2024-03-16T17:38:11.678Z,101264.73
2024-03-16T17:40:40.291Z,101271.40
2024-03-16T17:43:11.339Z,101272.75
2024-03-16T17:45:42.627Z,101277.42
2024-03-16T17:48:11.123Z,101290.12
2024-03-16T17:50:39.637Z,101293.31
2024-03-16T17:53:09.550Z,101289.84
2024-03-16T17:55:38.039Z,101292.67
2024-03-16T17:58:08.492Z,101293.38
2024-03-16T18:00:39.063Z,101304.00
2024-03-16T18:03:10.267Z,101306.70
2024-03-16T18:05:39.648Z,101309.32
2024-03-16T18:08:10.844Z,101307.79
2024-03-16T18:10:39.723Z,101309.75
2024-03-16T18:13:08.186Z,101310.83
2024-03-16T18:15:39.058Z,101314.48
2024-03-16T18:18:12.473Z,101317.64
2024-03-16T18:20:41.100Z,101319.95
2024-03-16T18:23:09.586Z,101323.26
2024-03-16T18:25:38.137Z,101323.02
2024-03-16T18:28:10.366Z,101327.96
2024-03-16T18:30:39.833Z,101331.26
2024-03-16T18:33:09.301Z,101337.52
2024-03-16T18:35:38.107Z,101341.92
2024-03-16T18:38:06.813Z,101342.95
2024-03-16T18:40:38.705Z,101348.29
2024-03-16T18:43:09.376Z,101350.05
2024-03-16T18:45:38.658Z,101352.99
2024-03-16T18:48:08.873Z,101359.34
2024-03-16T18:50:38.611Z,101355.98
2024-03-16T18:53:07.309Z,101361.07
2024-03-16T18:55:36.611Z,101361.64
2024-03-16T18:58:06.722Z,101365.53
2024-03-16T19:00:41.044Z,101369.02
2024-03-16T19:03:13.537Z,101371.52
2024-03-16T19:05:42.053Z,101371.92
2024-03-16T19:08:10.572Z,101377.08
2024-03-16T19:10:39.009Z,101380.90
2024-03-16T19:13:07.462Z,101387.98
2024-03-16T19:15:36.160Z,101393.41
2024-03-16T19:18:04.836Z,101392.69
2024-03-16T19:20:33.358Z,101397.02
2024-03-16T19:23:03.897Z,101398.62
2024-03-16T19:25:32.410Z,101398.23
2024-03-16T19:28:00.947Z,101403.05
2024-03-16T19:30:29.459Z,101404.36
2024-03-16T19:32:57.968Z,101405.48
2024-03-16T19:35:26.492Z,101407.94
2024-03-16T19:37:54.913Z,101404.95
2024-03-16T19:40:23.358Z,101411.42
2024-03-16T19:42:54.496Z,101410.61
2024-03-16T19:45:23.620Z,101409.55
2024-03-16T19:47:52.133Z,101415.40
2024-03-16T19:50:22.081Z,101415.65
2024-03-16T19:52:51.248Z,101424.63
2024-03-16T19:55:21.261Z,101431.73
2024-03-16T19:57:49.684Z,101435.38
2024-03-16T20:00:23.872Z,101438.54
2024-03-16T20:02:52.305Z,101438.41
2024-03-16T20:05:20.922Z,101443.64
2024-03-16T20:07:49.419Z,101444.20
2024-03-16T20:10:18.157Z,101442.91
2024-03-16T20:12:48.211Z,101446.11
2024-03-16T20:15:17.417Z,101445.83
2024-03-16T20:17:45.946Z,101448.98
2024-03-16T20:20:16.208Z,101453.27
2024-03-16T20:22:44.647Z,101455.23
2024-03-16T20:25:13.648Z,101451.05
2024-03-16T20:27:42.113Z,101453.41
2024-03-16T20:30:11.883Z,101456.14
2024-03-16T20:32:40.338Z,101467.14
2024-03-16T20:35:12.168Z,101458.44
2024-03-16T20:37:40.991Z,101459.16
2024-03-16T20:40:10.593Z,101456.50
2024-03-16T20:42:39.043Z,101460.45
2024-03-16T20:45:08.671Z,101461.98
2024-03-16T20:47:37.786Z,101470.25
2024-03-16T20:50:07.890Z,101474.90
2024-03-16T20:52:39.894Z,101474.64
2024-03-16T20:55:08.762Z,101478.25
2024-03-16T20:57:37.846Z,101477.60
2024-03-16T21:00:10.130Z,101482.09
2024-03-16T21:02:38.643Z,101482.83
2024-03-16T21:05:09.665Z,101488.16
2024-03-16T21:07:38.158Z,101491.62
2024-03-16T21:10:07.681Z,101492.93
2024-03-16T21:12:36.399Z,101492.45
2024-03-16T21:15:10.013Z,101487.11
2024-03-16T21:17:38.575Z,101495.01
2024-03-16T21:20:11.604Z,101490.31
2024-03-16T21:22:43.170Z,101502.96
2024-03-16T21:25:12.767Z,101499.41
2024-03-16T21:27:43.200Z,101502.95
2024-03-16T21:30:12.972Z,101506.96
2024-03-16T21:32:45.343Z,101507.08
2024-03-16T21:35:14.543Z,101514.40
2024-03-16T21:37:43.201Z,101512.58
2024-03-16T21:40:12.967Z,101513.30
2024-03-16T21:42:41.826Z,101510.05
2024-03-16T21:45:11.035Z,101515.33
2024-03-16T21:47:39.477Z,101519.13
2024-03-16T21:50:10.743Z,101520.61
2024-03-16T21:52:39.169Z,101525.58
2024-03-16T21:55:11.091Z,101528.04
2024-03-16T21:57:40.793Z,101525.36
2024-03-16T22:00:14.325Z,101526.90
2024-03-16T22:02:42.972Z,101525.45
2024-03-16T22:05:12.994Z,101526.55
2024-03-16T22:07:41.874Z,101531.58
2024-03-16T22:10:11.352Z,101526.96
2024-03-16T22:12:39.892Z,101529.16
2024-03-16T22:15:09.587Z,101531.08
2024-03-16T22:17:38.330Z,101534.09
2024-03-16T22:20:08.683Z,101537.98
2024-03-16T22:22:37.165Z,101536.58
2024-03-16T22:25:06.567Z,101532.75
2024-03-16T22:27:35.356Z,101543.23
2024-03-16T22:30:05.879Z,101547.99
2024-03-16T22:32:34.403Z,101546.50
2024-03-16T22:35:03.120Z,101554.39
2024-03-16T22:37:31.806Z,101552.65
2024-03-16T22:40:00.638Z,101558.51
2024-03-16T22:42:29.250Z,101558.34
2024-03-16T22:44:57.998Z,101562.08
2024-03-16T22:47:26.570Z,101562.31
2024-03-16T22:49:55.084Z,101570.77
2024-03-16T22:52:23.622Z,101577.99
2024-03-16T22:54:54.838Z,101577.73
2024-03-16T22:57:25.072Z,101581.25
2024-03-16T22:59:53.576Z,101581.85
2024-03-16T23:02:22.080Z,101584.52
2024-03-16T23:04:50.807Z,101580.41
2024-03-16T23:07:20.584Z,101584.95
2024-03-16T23:09:49.080Z,101583.68
2024-03-16T23:12:17.581Z,101586.76
2024-03-16T23:14:46.123Z,101586.67
2024-03-16T23:17:16.426Z,101587.30
2024-03-16T23:19:45.359Z,101584.98
2024-03-16T23:22:13.840Z,101584.98
2024-03-16T23:24:42.346Z,101582.75
2024-03-16T23:27:11.689Z,101584.76
2024-03-16T23:29:40.272Z,101587.50
2024-03-16T23:32:09.337Z,101589.11
2024-03-16T23:34:38.020Z,101594.63
2024-03-16T23:37:07.689Z,101593.63
2024-03-16T23:39:36.704Z,101597.02
2024-03-16T23:42:05.343Z,101597.39
2024-03-16T23:44:33.870Z,101593.56
2024-03-16T23:47:02.405Z,101599.19
2024-03-16T23:49:31.360Z,101598.24
2024-03-16T23:51:59.852Z,101590.86
2024-03-16T23:54:28.857Z,101603.30
2024-03-16T23:57:26.767Z,101606.17
2024-03-16T23:59:56.719Z,101610.73
